createdAt,value
2018-03-14T00:00:27.780Z,13.27
2018-03-14T00:02:54.168Z,13.27
2018-03-14T00:05:21.265Z,13.77
2018-03-14T00:07:47.682Z,13.53
2018-03-14T00:10:14.072Z,14.23
2018-03-14T00:12:40.632Z,14.80
2018-03-14T00:15:06.988Z,14.30
2018-03-14T00:17:34.117Z,15.40
2018-03-14T00:20:01.265Z,14.20
2018-03-14T00:22:34.697Z,15.77
2018-03-14T00:25:01.844Z,15.50
2018-03-14T00:27:28.196Z,15.30
2018-03-14T00:29:55.280Z,16.40
2018-03-14T00:32:21.664Z,16.10
2018-03-14T00:34:48.100Z,12.80
2018-03-14T00:37:14.460Z,18.17
2018-03-14T00:39:40.863Z,17.80
2018-03-14T00:42:07.280Z,15.20
2018-03-14T00:44:33.624Z,15.30
2018-03-14T00:46:59.984Z,16.97
2018-03-14T00:49:26.330Z,16.97
2018-03-14T00:51:52.710Z,16.60
2018-03-14T00:54:19.124Z,17.30
2018-03-14T00:56:45.492Z,17.67
2018-03-14T00:59:11.884Z,18.60
2018-03-14T01:01:39.029Z,19.90
2018-03-14T01:04:05.396Z,18.50
2018-03-14T01:06:32.500Z,16.90
2018-03-14T01:08:58.884Z,19.20
2018-03-14T01:11:25.244Z,17.93
2018-03-14T01:13:51.764Z,18.80
2018-03-14T01:16:18.127Z,19.33
2018-03-14T01:18:44.484Z,17.93
2018-03-14T01:21:11.585Z,19.63
2018-03-14T01:23:37.956Z,19.43
2018-03-14T01:26:04.372Z,19.97
2018-03-14T01:28:30.721Z,20.40
2018-03-14T01:30:57.109Z,20.20
2018-03-14T01:33:24.200Z,20.80
2018-03-14T01:35:50.668Z,20.33
2018-03-14T01:38:17.068Z,17.57
2018-03-14T01:40:44.920Z,21.97
2018-03-14T01:43:11.268Z,19.37
2018-03-14T01:45:38.414Z,21.50
2018-03-14T01:48:05.740Z,19.53
2018-03-14T01:50:32.105Z,20.70
2018-03-14T01:53:10.719Z,18.60
2018-03-14T01:55:37.125Z,20.43
2018-03-14T01:58:03.509Z,20.13
2018-03-14T02:00:30.612Z,21.67
2018-03-14T02:02:56.960Z,22.80
2018-03-14T02:05:23.316Z,22.23
2018-03-14T02:07:49.680Z,23.40
2018-03-14T02:10:16.796Z,23.13
2018-03-14T02:12:43.149Z,22.73
2018-03-14T02:15:09.505Z,23.17
2018-03-14T02:17:35.844Z,22.80
2018-03-14T02:20:02.234Z,24.00
2018-03-14T02:22:28.594Z,22.43
2018-03-14T02:24:54.944Z,22.43
2018-03-14T02:27:21.308Z,25.27
2018-03-14T02:29:47.673Z,23.43
2018-03-14T02:32:14.773Z,24.53
2018-03-14T02:34:41.115Z,23.03
2018-03-14T02:37:07.496Z,19.97
2018-03-14T02:39:35.336Z,22.40
2018-03-14T02:42:01.735Z,24.13
2018-03-14T02:44:28.312Z,23.67
2018-03-14T02:46:54.727Z,27.60
2018-03-14T02:49:21.060Z,23.73
2018-03-14T02:51:47.430Z,22.90
2018-03-14T02:54:14.506Z,22.67
2018-03-14T02:56:40.877Z,25.60
2018-03-14T02:59:07.220Z,25.73
2018-03-14T03:01:33.569Z,23.50
2018-03-14T03:03:59.920Z,24.23
2018-03-14T03:06:26.260Z,25.23
2018-03-14T03:08:52.578Z,25.10
2018-03-14T03:11:19.652Z,24.83
2018-03-14T03:13:46.036Z,22.30
2018-03-14T03:16:13.864Z,24.93
2018-03-14T03:18:40.204Z,24.70
2018-03-14T03:21:06.512Z,20.60
2018-03-14T03:23:32.850Z,23.83
2018-03-14T03:25:59.172Z,25.47
2018-03-14T03:28:25.499Z,24.00
2018-03-14T03:30:51.837Z,21.83
2018-03-14T03:33:18.180Z,21.93
2018-03-14T03:35:44.509Z,23.60
2018-03-14T03:38:10.864Z,24.07
2018-03-14T03:40:37.217Z,25.77
2018-03-14T03:43:03.575Z,26.23
2018-03-14T03:45:29.941Z,25.13
2018-03-14T03:47:57.040Z,23.53
2018-03-14T03:50:23.428Z,25.13
2018-03-14T03:52:49.745Z,23.97
2018-03-14T03:55:16.048Z,26.30
2018-03-14T03:57:43.136Z,24.50
2018-03-14T04:00:09.448Z,24.67
2018-03-14T04:02:36.536Z,22.30
2018-03-14T04:05:02.980Z,24.87
2018-03-14T04:07:29.434Z,27.50
2018-03-14T04:09:55.776Z,23.47
2018-03-14T04:12:22.165Z,26.63
2018-03-14T04:14:48.584Z,27.67
2018-03-14T04:17:14.889Z,29.27
2018-03-14T04:19:41.300Z,23.87
2018-03-14T04:22:09.116Z,28.60
2018-03-14T04:24:35.477Z,28.50
2018-03-14T04:27:01.832Z,25.50
2018-03-14T04:29:28.217Z,26.00
2018-03-14T04:31:54.616Z,25.87
2018-03-14T04:34:21.251Z,27.17
2018-03-14T04:36:48.392Z,27.10
2018-03-14T04:39:14.764Z,29.33
2018-03-14T04:41:41.116Z,31.60
2018-03-14T04:44:07.486Z,30.17
2018-03-14T04:46:33.854Z,29.13
2018-03-14T04:49:00.936Z,30.70
2018-03-14T04:51:27.305Z,32.10
2018-03-14T04:53:53.673Z,34.00
2018-03-14T04:56:20.046Z,29.47
2018-03-14T04:58:47.141Z,33.37
2018-03-14T05:01:13.569Z,29.83
2018-03-14T05:03:39.967Z,29.43
2018-03-14T05:06:06.409Z,27.73
2018-03-14T05:08:32.727Z,32.70
2018-03-14T05:10:59.120Z,31.90
2018-03-14T05:13:26.172Z,28.33
2018-03-14T05:15:52.577Z,31.17
2018-03-14T05:18:18.936Z,34.20
2018-03-14T05:20:45.305Z,31.70
2018-03-14T05:23:12.617Z,30.23
2018-03-14T05:25:39.095Z,30.17
2018-03-14T05:28:05.535Z,32.50
2018-03-14T05:30:31.997Z,29.10
2018-03-14T05:32:58.389Z,28.93
2018-03-14T05:35:24.820Z,29.40
2018-03-14T05:37:51.306Z,25.53
2018-03-14T05:40:17.704Z,26.83
2018-03-14T05:42:44.040Z,27.10
2018-03-14T05:45:10.408Z,23.77
2018-03-14T05:47:37.581Z,23.00
2018-03-14T05:50:05.305Z,25.70
2018-03-14T05:52:31.673Z,26.57
2018-03-14T05:54:58.040Z,25.97
2018-03-14T05:57:25.202Z,28.10
2018-03-14T05:59:51.574Z,24.63
2018-03-14T06:02:17.987Z,27.93
2018-03-14T06:04:44.376Z,27.47
2018-03-14T06:07:11.582Z,27.77
2018-03-14T06:09:37.969Z,27.00
2018-03-14T06:12:04.348Z,26.57
2018-03-14T06:14:31.621Z,31.60
2018-03-14T06:16:57.984Z,30.03
2018-03-14T06:19:25.108Z,29.40
2018-03-14T06:21:53.056Z,33.83
2018-03-14T06:24:19.437Z,37.50
2018-03-14T06:26:46.308Z,36.07
2018-03-14T06:29:12.697Z,43.07
2018-03-14T06:31:39.120Z,48.30
2018-03-14T06:34:05.449Z,40.70
2018-03-14T06:36:31.935Z,43.87
2018-03-14T06:38:58.280Z,45.90
2018-03-14T06:41:25.506Z,49.50
2018-03-14T06:43:51.866Z,44.47
2018-03-14T06:46:18.224Z,40.33
2018-03-14T06:48:44.588Z,45.37
2018-03-14T06:51:11.195Z,49.20
2018-03-14T06:53:38.414Z,44.03
2018-03-14T06:56:06.424Z,43.00
2018-03-14T06:58:45.114Z,45.47
2018-03-14T07:04:25.902Z,44.03
2018-03-14T07:06:52.364Z,43.30
2018-03-14T07:09:18.976Z,43.63
2018-03-14T07:11:45.363Z,39.87
2018-03-14T07:14:12.503Z,37.90
2018-03-14T07:16:38.964Z,38.10
2018-03-14T07:19:05.419Z,32.80
2018-03-14T07:21:33.321Z,34.47
2018-03-14T07:24:01.227Z,36.30
2018-03-14T07:26:27.591Z,34.97
2018-03-14T07:28:54.053Z,35.70
2018-03-14T07:31:20.501Z,32.80
2018-03-14T07:33:46.933Z,33.77
2018-03-14T07:36:13.309Z,29.13
2018-03-14T07:38:39.765Z,30.07
2018-03-14T07:41:06.198Z,31.40
2018-03-14T07:43:32.587Z,27.10
2018-03-14T07:45:59.719Z,28.00
2018-03-14T07:48:26.842Z,28.03
2018-03-14T07:50:54.288Z,25.10
2018-03-14T07:53:20.639Z,28.30
2018-03-14T07:55:47.828Z,29.00
2018-03-14T07:58:14.182Z,27.60
2018-03-14T08:00:40.581Z,28.50
2018-03-14T08:03:06.980Z,30.43
2018-03-14T08:05:33.468Z,29.53
2018-03-14T08:07:59.924Z,26.30
2018-03-14T08:10:26.352Z,28.20
2018-03-14T08:12:52.721Z,26.60
2018-03-14T08:15:19.128Z,25.40
2018-03-14T08:17:45.538Z,27.47
2018-03-14T08:20:12.091Z,26.40
2018-03-14T08:22:39.256Z,28.07
2018-03-14T08:25:06.406Z,29.83
2018-03-14T08:27:32.798Z,28.63
2018-03-14T08:30:00.053Z,29.67
2018-03-14T08:32:26.424Z,26.80
2018-03-14T08:34:52.848Z,26.10
2018-03-14T08:37:20.768Z,24.73
2018-03-14T08:39:47.165Z,27.43
2018-03-14T08:42:13.604Z,28.90
2018-03-14T08:44:39.982Z,27.50
2018-03-14T08:47:06.388Z,29.97
2018-03-14T08:49:32.725Z,27.70
2018-03-14T08:51:59.136Z,30.53
2018-03-14T08:54:25.578Z,27.53
2018-03-14T08:56:52.023Z,24.60
2018-03-14T08:59:19.143Z,24.67
2018-03-14T09:01:45.524Z,22.60
2018-03-14T09:04:12.260Z,28.70
2018-03-14T09:06:39.444Z,24.80
2018-03-14T09:09:05.825Z,26.77
2018-03-14T09:11:32.237Z,26.30
2018-03-14T09:13:58.629Z,26.80
2018-03-14T09:16:25.090Z,25.30
2018-03-14T09:18:51.500Z,22.40
2018-03-14T09:21:18.687Z,21.93
2018-03-14T09:23:45.084Z,23.07
2018-03-14T09:26:11.545Z,20.37
2018-03-14T09:28:37.985Z,20.17
2018-03-14T09:31:04.509Z,19.43
2018-03-14T09:33:30.901Z,19.57
2018-03-14T09:35:57.292Z,20.20
2018-03-14T09:38:23.713Z,18.80
2018-03-14T09:40:50.125Z,15.73
2018-03-14T09:43:16.553Z,17.30
2018-03-14T09:45:42.964Z,17.70
2018-03-14T09:48:10.099Z,16.00
2018-03-14T09:50:36.494Z,17.20
2018-03-14T09:53:03.634Z,17.50
2018-03-14T09:55:29.997Z,17.00
2018-03-14T09:57:56.425Z,16.07
2018-03-14T10:00:22.833Z,17.40
2018-03-14T10:02:49.274Z,16.13
2018-03-14T10:05:15.681Z,17.00
2018-03-14T10:07:43.597Z,16.60
2018-03-14T10:10:10.760Z,17.87
2018-03-14T10:12:37.178Z,15.40
2018-03-14T10:15:03.608Z,16.13
2018-03-14T10:17:30.041Z,16.70
2018-03-14T10:19:57.291Z,17.10
2018-03-14T10:22:23.738Z,19.20
2018-03-14T10:24:50.861Z,18.27
2018-03-14T10:27:17.286Z,18.80
2018-03-14T10:29:43.848Z,19.20
2018-03-14T10:32:10.206Z,17.10
2018-03-14T10:34:37.420Z,18.20
2018-03-14T10:37:04.565Z,18.53
2018-03-14T10:39:31.087Z,17.20
2018-03-14T10:41:57.486Z,18.40
2018-03-14T10:47:18.489Z,17.17
2018-03-14T10:49:45.682Z,15.60
2018-03-14T10:52:12.056Z,17.33
2018-03-14T10:54:38.453Z,15.57
2018-03-14T10:57:04.810Z,14.13
2018-03-14T10:59:32.007Z,14.10
2018-03-14T11:04:56.645Z,15.90
2018-03-14T11:07:23.887Z,14.57
2018-03-14T11:09:50.267Z,15.53
2018-03-14T11:12:16.924Z,12.43
2018-03-14T11:14:43.296Z,13.43
2018-03-14T11:17:09.688Z,14.33
2018-03-14T11:19:36.909Z,14.60
2018-03-14T11:22:03.373Z,13.00
2018-03-14T11:24:29.804Z,14.63
2018-03-14T11:26:56.898Z,13.27
2018-03-14T11:29:23.279Z,13.43
2018-03-14T11:31:50.405Z,13.03
2018-03-14T11:34:16.930Z,12.57
2018-03-14T11:36:43.303Z,11.50
2018-03-14T11:39:09.637Z,12.20
2018-03-14T11:41:36.060Z,11.87
2018-03-14T11:44:02.464Z,12.07
2018-03-14T11:46:28.965Z,10.50
2018-03-14T11:48:55.341Z,9.67
2018-03-14T11:51:21.736Z,10.83
2018-03-14T11:53:48.125Z,10.63
2018-03-14T11:56:14.523Z,10.50
2018-03-14T11:58:41.092Z,10.63
2018-03-14T12:01:07.513Z,9.00
2018-03-14T12:03:34.628Z,9.40
2018-03-14T12:06:01.025Z,10.00
2018-03-14T12:08:27.475Z,9.10
2018-03-14T12:10:54.078Z,8.40
2018-03-14T12:13:20.496Z,8.10
2018-03-14T12:15:46.903Z,9.03
2018-03-14T12:18:14.068Z,8.00
2018-03-14T12:20:40.510Z,8.40
2018-03-14T12:23:06.896Z,8.60
2018-03-14T12:25:33.310Z,7.40
2018-03-14T12:27:59.730Z,7.80
2018-03-14T12:30:26.133Z,6.63
2018-03-14T12:32:52.522Z,7.47
2018-03-14T12:35:19.716Z,6.80
2018-03-14T12:37:46.879Z,6.70
2018-03-14T12:40:13.277Z,7.23
2018-03-14T12:42:39.713Z,7.13
2018-03-14T12:45:06.112Z,6.50
2018-03-14T12:47:32.519Z,6.47
2018-03-14T12:49:59.060Z,8.53
2018-03-14T12:52:25.460Z,9.20
2018-03-14T12:54:52.576Z,7.47
2018-03-14T12:57:19.042Z,6.17
2018-03-14T12:59:45.534Z,7.60
2018-03-14T13:02:11.958Z,7.47
2018-03-14T13:04:38.313Z,7.53
2018-03-14T13:07:04.705Z,7.07
2018-03-14T13:09:31.080Z,8.00
2018-03-14T13:11:57.538Z,7.10
2018-03-14T13:14:23.986Z,8.30
2018-03-14T13:16:51.861Z,7.07
2018-03-14T13:19:18.272Z,6.80
2018-03-14T13:21:44.696Z,6.73
2018-03-14T13:24:11.246Z,7.50
2018-03-14T13:26:37.675Z,8.70
2018-03-14T13:29:04.149Z,7.67
2018-03-14T13:31:30.601Z,6.53
2018-03-14T13:33:57.045Z,6.40
2018-03-14T13:36:23.436Z,6.03
2018-03-14T13:38:49.914Z,7.47
2018-03-14T13:41:16.367Z,6.63
2018-03-14T13:43:42.772Z,5.93
2018-03-14T13:46:09.417Z,6.97
2018-03-14T13:48:35.864Z,5.50
2018-03-14T13:51:02.312Z,6.30
2018-03-14T13:53:28.812Z,6.07
2018-03-14T13:55:55.176Z,5.40
2018-03-14T13:58:21.667Z,5.57
2018-03-14T14:00:48.069Z,6.30
2018-03-14T14:03:14.501Z,5.43
2018-03-14T14:05:41.598Z,5.47
2018-03-14T14:08:08.303Z,6.63
2018-03-14T14:10:35.503Z,5.70
2018-03-14T14:13:01.990Z,6.60
2018-03-14T14:15:28.454Z,6.40
2018-03-14T14:17:55.816Z,6.20
2018-03-14T14:23:16.057Z,6.60
2018-03-14T14:25:42.525Z,6.23
2018-03-14T14:28:09.682Z,6.60
2018-03-14T14:30:36.172Z,5.47
2018-03-14T14:33:02.632Z,5.63
2018-03-14T14:35:29.776Z,5.80
2018-03-14T14:37:56.145Z,6.93
2018-03-14T14:40:22.541Z,5.73
2018-03-14T14:42:48.941Z,6.77
2018-03-14T14:45:16.096Z,5.13
2018-03-14T14:47:43.224Z,6.07
2018-03-14T14:50:09.645Z,6.47
2018-03-14T14:52:36.226Z,6.10
2018-03-14T14:55:03.084Z,5.30
2018-03-14T14:57:29.558Z,6.30
2018-03-14T14:59:57.436Z,6.07
2018-03-14T15:02:23.873Z,5.63
2018-03-14T15:04:50.336Z,5.47
2018-03-14T15:07:16.804Z,5.67
2018-03-14T15:09:43.268Z,6.03
2018-03-14T15:12:09.696Z,6.23
2018-03-14T15:14:36.155Z,6.07
2018-03-14T15:17:02.601Z,6.60
2018-03-14T15:19:29.068Z,6.93
2018-03-14T15:21:56.271Z,6.53
2018-03-14T15:24:22.916Z,6.60
2018-03-14T15:26:49.316Z,5.43
2018-03-14T15:29:15.726Z,6.73
2018-03-14T15:31:42.945Z,6.27
2018-03-14T15:34:10.864Z,6.10
2018-03-14T15:36:37.293Z,6.40
2018-03-14T15:39:04.920Z,6.63
2018-03-14T15:41:31.334Z,6.73
2018-03-14T15:43:58.452Z,6.70
2018-03-14T15:46:24.851Z,7.07
2018-03-14T15:48:51.200Z,6.27
2018-03-14T15:51:17.620Z,7.07
2018-03-14T15:53:43.981Z,6.83
2018-03-14T15:56:11.176Z,7.47
2018-03-14T15:58:37.524Z,6.47
2018-03-14T16:01:03.933Z,6.23
2018-03-14T16:03:30.329Z,7.50
2018-03-14T16:05:56.769Z,6.83
2018-03-14T16:08:23.249Z,6.63
2018-03-14T16:10:49.661Z,7.37
2018-03-14T16:13:16.081Z,6.57
2018-03-14T16:15:43.212Z,7.17
2018-03-14T16:18:10.418Z,8.67
2018-03-14T16:20:36.876Z,7.77
2018-03-14T16:23:03.289Z,9.13
2018-03-14T16:25:29.646Z,8.67
2018-03-14T16:27:56.017Z,6.80
2018-03-14T16:30:23.147Z,7.10
2018-03-14T16:32:49.520Z,7.80
2018-03-14T16:35:15.906Z,7.80
2018-03-14T16:37:43.276Z,7.73
2018-03-14T16:40:09.640Z,7.40
2018-03-14T16:42:36.102Z,7.47
2018-03-14T16:45:02.596Z,6.20
2018-03-14T16:47:29.723Z,7.50
2018-03-14T16:49:56.085Z,6.97
2018-03-14T16:52:22.536Z,7.10
2018-03-14T16:54:48.969Z,6.87
2018-03-14T16:57:15.337Z,7.00
2018-03-14T16:59:41.706Z,6.40
2018-03-14T17:02:08.124Z,9.10
2018-03-14T17:04:35.301Z,6.10
2018-03-14T17:07:01.646Z,6.27
2018-03-14T17:09:28.823Z,6.20
2018-03-14T17:11:55.246Z,6.47
2018-03-14T17:14:27.279Z,6.10
2018-03-14T17:16:48.009Z,7.07
2018-03-14T17:19:14.408Z,6.70
2018-03-14T17:21:40.776Z,5.57
2018-03-14T17:24:07.220Z,6.37
2018-03-14T17:26:33.595Z,5.90
2018-03-14T17:29:00.015Z,6.00
2018-03-14T17:31:26.451Z,5.97
2018-03-14T17:33:53.552Z,6.30
2018-03-14T17:36:19.889Z,5.63
2018-03-14T17:38:47.009Z,6.30
2018-03-14T17:41:13.399Z,7.07
2018-03-14T17:43:39.775Z,4.97
2018-03-14T17:46:06.227Z,6.03
2018-03-14T17:48:32.604Z,5.43
2018-03-14T17:50:59.008Z,6.40
2018-03-14T17:53:26.445Z,6.70
2018-03-14T17:55:52.958Z,6.03
2018-03-14T17:58:19.354Z,6.10
2018-03-14T18:00:46.472Z,5.20
2018-03-14T18:03:12.856Z,6.33
2018-03-14T18:05:40.023Z,6.07
2018-03-14T18:08:06.423Z,6.50
2018-03-14T18:10:32.777Z,5.90
2018-03-14T18:12:59.140Z,6.33
2018-03-14T18:15:25.506Z,5.67
2018-03-14T18:17:52.596Z,6.20
2018-03-14T18:20:18.957Z,6.80
2018-03-14T18:22:46.084Z,6.40
2018-03-14T18:25:12.491Z,5.60
2018-03-14T18:27:38.852Z,6.00
2018-03-14T18:30:05.657Z,6.27
2018-03-14T18:32:32.043Z,6.50
2018-03-14T18:34:58.548Z,5.27
2018-03-14T18:37:24.884Z,7.37
2018-03-14T18:39:51.243Z,6.20
2018-03-14T18:42:17.591Z,5.50
2018-03-14T18:44:44.880Z,5.77
2018-03-14T18:47:11.992Z,6.80
2018-03-14T18:49:39.068Z,4.83
2018-03-14T18:52:05.444Z,6.70
2018-03-14T18:54:33.256Z,5.90
2018-03-14T18:56:59.632Z,6.40
2018-03-14T18:59:26.020Z,7.30
2018-03-14T19:01:52.378Z,6.70
2018-03-14T19:04:19.474Z,5.97
2018-03-14T19:06:46.017Z,6.97
2018-03-14T19:09:12.384Z,6.40
2018-03-14T19:11:38.776Z,7.83
2018-03-14T19:14:05.174Z,6.30
2018-03-14T19:16:31.572Z,6.63
2018-03-14T19:18:57.921Z,5.77
2018-03-14T19:21:24.325Z,5.27
2018-03-14T19:23:50.680Z,5.77
2018-03-14T19:26:17.804Z,6.23
2018-03-14T19:28:44.204Z,7.07
2018-03-14T19:31:10.622Z,6.60
2018-03-14T19:33:36.999Z,6.13
2018-03-14T19:36:03.397Z,5.77
2018-03-14T19:38:30.507Z,6.40
2018-03-14T19:40:56.872Z,5.70
2018-03-14T19:43:24.737Z,5.70
2018-03-14T19:45:51.137Z,6.00
2018-03-14T19:48:18.236Z,5.93
2018-03-14T19:50:44.579Z,6.50
2018-03-14T19:53:10.923Z,7.50
2018-03-14T19:55:37.280Z,6.63
2018-03-14T19:58:03.715Z,6.07
2018-03-14T20:00:30.036Z,6.30
2018-03-14T20:02:56.380Z,6.90
2018-03-14T20:05:22.791Z,5.57
2018-03-14T20:07:49.164Z,7.57
2018-03-14T20:10:15.508Z,7.00
2018-03-14T20:12:42.706Z,6.80
2018-03-14T20:15:09.088Z,6.73
2018-03-14T20:17:35.432Z,7.13
2018-03-14T20:20:02.958Z,7.50
2018-03-14T20:22:30.136Z,7.50
2018-03-14T20:24:56.521Z,7.70
2018-03-14T20:27:23.617Z,7.70
2018-03-14T20:29:50.029Z,7.00
2018-03-14T20:32:17.192Z,7.97
2018-03-14T20:34:44.238Z,7.97
2018-03-14T20:37:11.361Z,8.33
2018-03-14T20:39:37.720Z,7.30
2018-03-14T20:42:04.062Z,7.10
2018-03-14T20:44:30.404Z,8.20
2018-03-14T20:46:56.737Z,7.83
2018-03-14T20:49:23.116Z,7.37
2018-03-14T20:51:50.224Z,7.57
2018-03-14T20:54:16.768Z,7.43
2018-03-14T20:56:43.125Z,8.30
2018-03-14T21:02:03.373Z,9.00
2018-03-14T21:04:30.498Z,8.87
2018-03-14T21:06:56.824Z,8.77
2018-03-14T21:09:23.216Z,6.77
2018-03-14T21:11:49.573Z,6.83
2018-03-14T21:14:16.720Z,6.47
2018-03-14T21:16:43.133Z,5.70
2018-03-14T21:19:09.512Z,5.27
2018-03-14T21:21:35.881Z,5.90
2018-03-14T21:24:03.040Z,6.17
2018-03-14T21:26:29.432Z,6.17
2018-03-14T21:28:55.796Z,6.80
2018-03-14T21:31:22.186Z,5.77
2018-03-14T21:33:49.265Z,6.90
2018-03-14T21:36:15.631Z,6.40
2018-03-14T21:38:42.060Z,5.67
2018-03-14T21:41:08.455Z,6.27
2018-03-14T21:43:36.274Z,6.57
2018-03-14T21:46:02.666Z,6.13
2018-03-14T21:48:29.141Z,7.30
2018-03-14T21:50:55.680Z,5.60
2018-03-14T21:53:22.823Z,6.80
2018-03-14T21:55:49.367Z,7.40
2018-03-14T21:58:15.812Z,5.30
2018-03-14T22:00:42.954Z,6.93
2018-03-14T22:03:10.099Z,6.43
2018-03-14T22:05:36.476Z,7.60
2018-03-14T22:08:02.870Z,6.80
2018-03-14T22:10:29.249Z,7.07
2018-03-14T22:12:55.617Z,7.53
2018-03-14T22:15:21.989Z,7.77
2018-03-14T22:17:48.407Z,6.97
2018-03-14T22:20:14.812Z,7.30
2018-03-14T22:22:41.564Z,7.73
2018-03-14T22:25:07.961Z,8.03
2018-03-14T22:27:34.345Z,9.10
2018-03-14T22:30:00.725Z,7.80
2018-03-14T22:32:27.845Z,8.30
2018-03-14T22:34:54.224Z,8.07
2018-03-14T22:37:21.314Z,8.03
2018-03-14T22:39:47.729Z,8.47
2018-03-14T22:42:14.116Z,7.63
2018-03-14T22:44:40.476Z,7.53
2018-03-14T22:47:06.886Z,8.53
2018-03-14T22:49:33.973Z,9.90
2018-03-14T22:52:00.336Z,8.43
2018-03-14T22:54:26.675Z,9.27
2018-03-14T22:56:53.069Z,9.30
2018-03-14T22:59:20.188Z,8.20
2018-03-14T23:01:46.576Z,8.23
2018-03-14T23:04:12.908Z,10.60
2018-03-14T23:06:40.018Z,8.73
2018-03-14T23:09:06.405Z,9.50
2018-03-14T23:11:38.757Z,10.10
2018-03-14T23:14:05.127Z,10.93
2018-03-14T23:16:32.298Z,10.43
2018-03-14T23:18:58.900Z,10.30
2018-03-14T23:21:25.264Z,9.03
2018-03-14T23:23:51.947Z,10.07
2018-03-14T23:26:18.381Z,11.53
2018-03-14T23:28:44.724Z,10.80
2018-03-14T23:31:11.874Z,11.43
2018-03-14T23:33:38.384Z,11.63
2018-03-14T23:36:04.757Z,10.73
2018-03-14T23:38:31.129Z,10.63
2018-03-14T23:40:57.466Z,12.13
2018-03-14T23:43:23.842Z,12.17
2018-03-14T23:45:50.182Z,12.87
2018-03-14T23:48:16.593Z,11.10
2018-03-14T23:50:43.686Z,11.70
2018-03-14T23:53:10.402Z,12.70
2018-03-14T23:55:37.503Z,11.60
2018-03-14T23:58:03.901Z,11.57
